Time;durP1;ratioP1;P1;durP2;ratioP2;P2;SDS_P1;SDS_P2;PMS_P1;PMS_P2;Temp;Humidity;BMP_temperature;BMP_pressure;BME280_temperature;BME280_humidity;BME280_pressure;Samples;Min_cycle;Max_cycle;Signal;HPM_P1;HPM_P2
2022/11/12 00:00:04;;;;;;;1.97;1.43;;;;;;;-145.69;100.00;52658.28;5113565;28;20193;-80
2022/11/12 00:02:30;;;;;;;4.77;2.00;;;;;;;-145.69;100.00;52630.53;5113616;28;20555;-80
2022/11/12 00:04:57;;;;;;;2.20;1.70;;;;;;;-145.69;100.00;52644.41;5113444;28;20762;-80
2022/11/12 00:07:23;;;;;;;3.37;1.70;;;;;;;-145.69;100.00;52632.53;5113787;28;20620;-80
2022/11/12 00:09:50;;;;;;;3.97;1.83;;;;;;;-145.69;100.00;52646.41;5113755;28;20593;-80
2022/11/12 00:12:16;;;;;;;4.87;2.10;;;;;;;-145.69;100.00;52632.53;5113477;28;20644;-81
2022/11/12 00:14:44;;;;;;;2.83;2.07;;;;;;;-145.69;100.00;52666.19;5111813;28;20201;-79
2022/11/12 00:17:11;;;;;;;3.33;1.93;;;;;;;-145.69;100.00;52666.19;5111541;28;20225;-79
2022/11/12 00:19:37;;;;;;;3.03;1.93;;;;;;;-145.69;100.00;52670.16;5112572;28;20209;-80
2022/11/12 00:22:04;;;;;;;4.73;1.90;;;;;;;-145.69;100.00;52630.53;5112897;28;20678;-80
2022/11/12 00:24:31;;;;;;;2.43;1.87;;;;;;;-145.69;100.00;52648.38;5113270;28;20296;-79
2022/11/12 00:26:57;;;;;;;6.50;2.10;;;;;;;-145.69;100.00;52658.28;5113339;28;20258;-80
2022/11/12 00:29:24;;;;;;;4.40;2.00;;;;;;;-145.69;100.00;52626.59;5112720;28;20193;-80
2022/11/12 00:31:53;;;;;;;5.17;2.10;;;;;;;-145.69;100.00;52626.59;5113294;28;20201;-80
2022/11/12 00:34:19;;;;;;;2.17;1.50;;;;;;;-145.69;100.00;52618.66;5113208;28;20650;-80
2022/11/12 00:36:46;;;;;;;4.43;2.00;;;;;;;-145.69;100.00;52636.50;5113071;28;20236;-80
2022/11/12 00:39:13;;;;;;;2.70;1.70;;;;;;;-145.69;100.00;52640.44;5113338;28;20201;-80
2022/11/12 00:41:39;;;;;;;1.70;1.37;;;;;;;-145.69;100.00;52654.31;5113217;28;20204;-80
2022/11/12 00:44:06;;;;;;;4.17;1.73;;;;;;;-145.69;100.00;52638.47;5112930;28;20194;-81
2022/11/12 00:46:32;;;;;;;2.80;1.70;;;;;;;-145.69;100.00;52642.44;5113087;28;20213;-80
2022/11/12 00:49:00;;;;;;;4.03;1.73;;;;;;;-145.69;100.00;52646.41;5113222;28;20255;-80
2022/11/12 00:51:27;;;;;;;1.97;1.47;;;;;;;-145.69;100.00;52588.97;5113197;28;20201;-80
2022/11/12 00:53:53;;;;;;;2.73;1.50;;;;;;;-145.69;100.00;52638.47;5113068;28;20648;-80
2022/11/12 00:56:20;;;;;;;1.70;1.30;;;;;;;-145.69;100.00;52628.56;5113044;28;20217;-80
2022/11/12 00:58:47;;;;;;;2.13;1.50;;;;;;;-145.69;100.00;52654.31;5113093;28;20575;-80
2022/11/12 01:01:15;;;;;;;2.30;1.40;;;;;;;-145.69;100.00;52608.75;5112508;28;20200;-81
2022/11/12 01:03:42;;;;;;;1.27;1.17;;;;;;;-145.69;100.00;52650.34;5112647;28;20208;-81
2022/11/12 01:06:12;;;;;;;1.73;1.40;;;;;;;-145.69;100.00;52638.47;5112587;28;20581;-80
2022/11/12 01:08:39;;;;;;;1.57;1.20;;;;;;;-145.69;100.00;52632.53;5112703;28;20640;-81
2022/11/12 01:11:08;;;;;;;1.70;1.30;;;;;;;-145.69;100.00;52664.22;5112961;28;20205;-79
2022/11/12 01:13:35;;;;;;;2.50;1.40;;;;;;;-145.69;100.00;52632.53;5105475;28;20281;-80
2022/11/12 01:16:05;;;;;;;1.90;1.43;;;;;;;-145.69;100.00;52660.25;5106994;28;20204;-80
2022/11/12 01:18:32;;;;;;;1.90;1.30;;;;;;;-145.69;100.00;52636.50;5112453;28;20250;-80
2022/11/12 01:21:01;;;;;;;2.83;1.37;;;;;;;-145.69;100.00;52622.63;5112532;28;20209;-80
2022/11/12 01:23:29;;;;;;;1.60;1.30;;;;;;;-145.69;100.00;52652.34;5112193;28;20198;-80
2022/11/12 01:25:55;;;;;;;2.27;1.23;;;;;;;-145.69;100.00;52695.91;5112753;28;20198;-80
2022/11/12 01:28:22;;;;;;;1.63;1.07;;;;;;;-145.69;100.00;52642.44;5112964;28;20212;-80
2022/11/12 01:30:49;;;;;;;1.80;1.37;;;;;;;-145.69;100.00;52654.31;5111980;28;20292;-79
2022/11/12 01:33:15;;;;;;;2.10;1.10;;;;;;;-145.69;100.00;52614.72;5094355;28;20196;-80
2022/11/12 01:35:42;;;;;;;1.60;1.10;;;;;;;-145.69;100.00;52670.16;5098242;28;20222;-80
2022/11/12 01:38:08;;;;;;;2.37;1.50;;;;;;;-145.69;100.00;52636.50;5103580;28;20220;-80
2022/11/12 01:40:36;;;;;;;1.60;1.17;;;;;;;-145.69;100.00;52624.59;5116426;28;20197;-80
2022/11/12 01:43:03;;;;;;;1.20;1.10;;;;;;;-145.69;100.00;52662.22;5116402;28;20197;-80
2022/11/12 01:45:29;;;;;;;1.70;1.17;;;;;;;-145.69;100.00;52634.50;5116505;28;20213;-80
2022/11/12 01:47:56;;;;;;;1.63;1.13;;;;;;;-145.69;100.00;52660.25;5116407;28;20197;-80
2022/11/12 01:50:28;;;;;;;1.63;1.10;;;;;;;-145.69;100.00;52658.28;5116393;28;20221;-79
2022/11/12 01:52:57;;;;;;;2.13;1.23;;;;;;;-145.69;100.00;52630.53;5116211;28;20198;-80
2022/11/12 01:55:28;;;;;;;2.10;1.20;;;;;;;-145.69;100.00;52662.22;5116449;28;20202;-80
2022/11/12 01:58:00;;;;;;;1.00;0.87;;;;;;;-145.69;100.00;52666.19;5116298;28;20225;-80
2022/11/12 02:00:26;;;;;;;1.70;1.23;;;;;;;-145.69;100.00;52660.25;5116035;28;20198;-80
2022/11/12 02:02:57;;;;;;;1.50;1.10;;;;;;;-145.69;100.00;52654.31;5116075;28;20563;-80
2022/11/12 02:05:25;;;;;;;1.47;0.80;;;;;;;-145.69;100.00;52680.06;5115942;28;20193;-80
2022/11/12 02:07:52;;;;;;;1.30;1.20;;;;;;;-145.69;100.00;52626.59;5115836;28;20194;-80
2022/11/12 02:10:19;;;;;;;1.20;1.10;;;;;;;-145.69;100.00;52650.34;5115999;28;20197;-80
2022/11/12 02:15:32;;;;;;;1.70;1.20;;;;;;;-145.69;100.00;52634.50;5114839;28;20666;-80
2022/11/12 02:17:59;;;;;;;1.10;0.93;;;;;;;-145.69;100.00;52638.47;5115435;28;20232;-80
2022/11/12 02:20:26;;;;;;;4.30;1.10;;;;;;;-145.69;100.00;52666.19;5115925;28;20197;-79
2022/11/12 02:22:53;;;;;;;1.07;0.90;;;;;;;-145.69;100.00;52664.22;5116248;28;20197;-79
2022/11/12 02:25:23;;;;;;;0.90;0.90;;;;;;;-145.69;100.00;52684.03;5116563;28;20216;-79
2022/11/12 02:27:53;;;;;;;1.97;0.77;;;;;;;-145.69;100.00;52622.63;5115920;28;20209;-80
2022/11/12 02:30:30;;;;;;;0.97;0.90;;;;;;;-145.69;100.00;52676.09;5115612;28;20681;-79
2022/11/12 02:32:57;;;;;;;2.53;0.80;;;;;;;-145.69;100.00;52693.94;5115578;28;20200;-79
2022/11/12 02:35:24;;;;;;;0.83;0.83;;;;;;;-145.69;100.00;52664.22;5115322;28;20229;-79
2022/11/12 02:37:50;;;;;;;1.00;1.00;;;;;;;-145.69;100.00;52652.34;5115088;28;20229;-79
2022/11/12 02:40:18;;;;;;;0.70;0.70;;;;;;;-145.69;100.00;52664.22;5115416;28;20209;-80
2022/11/12 02:42:45;;;;;;;1.30;1.07;;;;;;;-145.69;100.00;52650.34;5114923;28;20206;-79
2022/11/12 02:45:11;;;;;;;1.30;1.13;;;;;;;-145.69;100.00;52642.44;5115166;28;20204;-80
2022/11/12 02:47:38;;;;;;;3.07;1.37;;;;;;;-145.69;100.00;52668.19;5115326;28;20198;-79
2022/11/12 02:50:05;;;;;;;1.00;0.80;;;;;;;-145.69;100.00;52638.47;5115414;28;20221;-80
2022/11/12 02:52:32;;;;;;;2.07;1.00;;;;;;;-145.69;100.00;52648.38;5114954;28;20198;-79
2022/11/12 02:54:59;;;;;;;1.23;0.90;;;;;;;-145.69;100.00;52652.34;5115086;28;20201;-80
2022/11/12 02:57:28;;;;;;;1.63;0.90;;;;;;;-145.69;100.00;52668.19;5114630;28;20278;-80
2022/11/12 02:59:55;;;;;;;1.93;1.00;;;;;;;-145.69;100.00;52701.84;5114914;28;20197;-80
2022/11/12 03:02:21;;;;;;;1.10;0.90;;;;;;;-145.69;100.00;52654.31;5114498;28;20201;-79
2022/11/12 03:04:48;;;;;;;1.20;1.03;;;;;;;-145.69;100.00;52628.56;5114997;28;20204;-79
2022/11/12 03:07:14;;;;;;;0.97;0.80;;;;;;;-145.69;100.00;52626.59;5114763;28;20197;-79
2022/11/12 03:09:41;;;;;;;1.87;0.97;;;;;;;-145.69;100.00;52670.16;5114308;28;20202;-80
2022/11/12 03:12:07;;;;;;;1.03;0.90;;;;;;;-145.69;100.00;52660.25;5114569;28;20197;-78
2022/11/12 03:14:35;;;;;;;1.23;1.00;;;;;;;-145.69;100.00;52684.03;5114517;28;20701;-79
2022/11/12 03:17:02;;;;;;;1.87;0.90;;;;;;;-145.69;100.00;52634.50;5114598;28;20237;-79
2022/11/12 03:19:28;;;;;;;1.03;0.90;;;;;;;-145.69;100.00;52642.44;5114415;28;20193;-79
2022/11/12 03:21:55;;;;;;;3.00;1.10;;;;;;;-145.69;100.00;52660.25;5114568;28;20227;-79
2022/11/12 03:24:21;;;;;;;0.80;0.80;;;;;;;-145.69;100.00;52654.31;5114417;28;20198;-79
2022/11/12 03:26:48;;;;;;;1.80;0.87;;;;;;;-145.69;100.00;52644.41;5113134;28;20208;-79
2022/11/12 03:29:14;;;;;;;1.97;1.00;;;;;;;-145.69;100.00;52666.19;5114434;28;20197;-79
2022/11/12 03:31:42;;;;;;;1.33;0.80;;;;;;;-145.69;100.00;52624.59;5113921;28;20204;-79
2022/11/12 03:34:10;;;;;;;0.90;0.90;;;;;;;-145.69;100.00;52638.47;5112438;28;20228;-79
2022/11/12 03:36:36;;;;;;;1.07;0.73;;;;;;;-145.69;100.00;52648.38;5113833;28;20201;-80
2022/11/12 03:39:03;;;;;;;1.10;0.90;;;;;;;-145.69;100.00;52654.31;5113965;28;20714;-79
2022/11/12 03:41:30;;;;;;;1.07;0.97;;;;;;;-145.69;100.00;52666.19;5113909;28;20200;-79
2022/11/12 03:43:56;;;;;;;0.87;0.87;;;;;;;-145.69;100.00;52650.34;5104209;28;20533;-79
2022/11/12 03:46:23;;;;;;;1.63;0.90;;;;;;;-145.69;100.00;52632.53;5093826;28;20198;-79
2022/11/12 03:48:52;;;;;;;1.53;0.83;;;;;;;-145.69;100.00;52618.66;5093817;28;20198;-79
2022/11/12 03:51:20;;;;;;;0.80;0.80;;;;;;;-145.69;100.00;52634.50;5093611;28;20255;-79
2022/11/12 03:53:47;;;;;;;1.37;0.90;;;;;;;-145.69;100.00;52678.09;5110894;28;20193;-79
2022/11/12 03:56:13;;;;;;;2.93;1.07;;;;;;;-145.69;100.00;52654.31;5113820;28;20982;-79
2022/11/12 03:58:40;;;;;;;0.80;0.80;;;;;;;-145.69;100.00;52640.44;5113537;28;20746;-79
2022/11/12 04:01:06;;;;;;;1.90;0.80;;;;;;;-145.69;100.00;52650.34;5113982;28;20567;-80
2022/11/12 04:03:33;;;;;;;0.80;0.70;;;;;;;-145.69;100.00;52670.16;5113788;28;20204;-80
2022/11/12 04:08:45;;;;;;;0.80;0.73;;;;;;;-145.69;100.00;52682.03;5113759;28;20294;-79
2022/11/12 04:11:13;;;;;;;0.63;0.63;;;;;;;-145.69;100.00;52650.34;5113719;28;20197;-80
2022/11/12 04:13:41;;;;;;;1.13;1.03;;;;;;;-145.69;100.00;52622.63;5113743;28;20223;-79
2022/11/12 04:21:56;;;;;;;2.33;0.67;;;;;;;-145.69;100.00;52632.53;5110826;28;20263;-78
2022/11/12 04:27:14;;;;;;;3.87;0.90;;;;;;;-145.69;100.00;52678.09;5112845;28;20193;-78
2022/11/12 04:32:25;;;;;;;1.47;1.00;;;;;;;-145.69;100.00;52642.44;5112005;28;20285;-79
2022/11/12 04:34:52;;;;;;;3.00;0.90;;;;;;;-145.69;100.00;52646.41;5113071;28;20225;-79
2022/11/12 04:37:24;;;;;;;0.90;0.90;;;;;;;-145.69;100.00;52638.47;5112232;28;20346;-79
2022/11/12 04:39:51;;;;;;;1.20;0.90;;;;;;;-145.69;100.00;52634.50;5113098;28;20202;-79
2022/11/12 04:45:09;;;;;;;1.50;0.90;;;;;;;-145.69;100.00;52670.16;5113246;28;20200;-79
2022/11/12 04:47:39;;;;;;;1.07;0.97;;;;;;;-145.69;100.00;52640.44;5113101;28;20292;-79
2022/11/12 04:50:09;;;;;;;0.87;0.87;;;;;;;-145.69;100.00;52662.22;5113013;28;20233;-79
2022/11/12 04:52:37;;;;;;;0.77;0.77;;;;;;;-145.69;100.00;52654.31;5113135;28;20193;-79
2022/11/12 04:55:07;;;;;;;2.50;0.80;;;;;;;-145.69;100.00;52668.19;5113198;28;20204;-79
2022/11/12 04:57:33;;;;;;;0.93;0.80;;;;;;;-145.69;100.00;52660.25;5113203;28;20308;-79
2022/11/12 05:00:00;;;;;;;2.35;0.90;;;;;;;-145.69;100.00;52634.50;5112166;28;21085;-79
2022/11/12 05:02:30;;;;;;;0.77;0.77;;;;;;;-145.69;100.00;52614.72;5112979;28;20202;-79
2022/11/12 05:04:57;;;;;;;1.00;1.00;;;;;;;-145.69;100.00;52634.50;5114697;28;20205;-79
2022/11/12 05:07:23;;;;;;;0.90;0.90;;;;;;;-145.69;100.00;52648.38;5117195;28;20201;-79
2022/11/12 05:09:51;;;;;;;1.97;0.90;;;;;;;-145.69;100.00;52638.47;5117160;28;20227;-79
2022/11/12 05:12:18;;;;;;;0.90;0.73;;;;;;;-145.69;100.00;52676.09;5116570;28;20211;-79
2022/11/12 05:14:44;;;;;;;0.90;0.73;;;;;;;-145.69;100.00;52644.41;5116538;28;20513;-79
2022/11/12 05:17:11;;;;;;;0.93;0.87;;;;;;;-145.69;100.00;52678.09;5116630;28;20197;-79
2022/11/12 05:19:37;;;;;;;1.50;0.87;;;;;;;-145.69;100.00;52634.50;5116733;28;20236;-79
2022/11/12 05:22:07;;;;;;;1.27;0.97;;;;;;;-145.69;100.00;52632.53;5116017;28;20205;-79
2022/11/12 05:24:36;;;;;;;2.40;0.83;;;;;;;-145.69;100.00;52628.56;5115298;28;20667;-79
2022/11/12 05:27:05;;;;;;;1.23;0.70;;;;;;;-145.69;100.00;52654.31;5116572;28;20254;-79
2022/11/12 05:29:31;;;;;;;1.03;0.70;;;;;;;-145.69;100.00;52660.25;5116583;28;20247;-78
2022/11/12 05:31:58;;;;;;;0.60;0.60;;;;;;;-145.69;100.00;52622.63;5116342;28;20208;-79
2022/11/12 05:34:25;;;;;;;0.80;0.80;;;;;;;-145.69;100.00;52644.41;5116554;28;20237;-79
2022/11/12 05:36:52;;;;;;;0.70;0.70;;;;;;;-145.69;100.00;52636.50;5116601;28;20197;-79
2022/11/12 05:39:18;;;;;;;0.90;0.90;;;;;;;-145.69;100.00;52630.53;5116281;28;20691;-79
2022/11/12 05:41:45;;;;;;;1.10;0.60;;;;;;;-145.69;100.00;52634.50;5116381;28;20198;-79
2022/11/12 05:44:13;;;;;;;0.50;0.50;;;;;;;-145.69;100.00;52608.75;5114850;28;20646;-79
2022/11/12 05:46:41;;;;;;;0.80;0.80;;;;;;;-145.69;100.00;52650.34;5116290;28;20598;-79
2022/11/12 05:49:08;;;;;;;2.17;0.80;;;;;;;-145.69;100.00;52638.47;5116329;28;20229;-79
2022/11/12 05:51:35;;;;;;;1.00;0.80;;;;;;;-145.69;100.00;52624.59;5112934;28;20197;-79
2022/11/12 05:54:02;;;;;;;0.80;0.80;;;;;;;-145.69;100.00;52668.19;5095883;28;20201;-79
2022/11/12 05:56:28;;;;;;;0.70;0.70;;;;;;;-145.69;100.00;52646.41;5095644;28;20194;-79
2022/11/12 05:58:55;;;;;;;0.80;0.80;;;;;;;-145.69;100.00;52674.13;5095554;28;20235;-79
2022/11/12 06:01:25;;;;;;;0.93;0.60;;;;;;;-145.69;100.00;52662.22;5095582;28;20205;-79
2022/11/12 06:03:51;;;;;;;1.53;0.97;;;;;;;-145.69;100.00;52646.41;5095703;28;20198;-79
2022/11/12 06:06:20;;;;;;;1.80;1.20;;;;;;;-145.69;100.00;52654.31;5105054;28;20189;-79
2022/11/12 06:08:46;;;;;;;2.07;1.40;;;;;;;-145.69;100.00;52646.41;5116660;28;20664;-79
2022/11/12 06:11:13;;;;;;;2.10;1.60;;;;;;;-145.69;100.00;52650.34;5116070;28;20258;-78
2022/11/12 06:13:43;;;;;;;1.23;1.13;;;;;;;-145.69;100.00;52668.19;5116018;28;20291;-79
2022/11/12 06:16:12;;;;;;;2.27;1.53;;;;;;;-145.69;100.00;52664.22;5115419;28;20572;-79
2022/11/12 06:18:43;;;;;;;3.13;1.20;;;;;;;-145.69;100.00;52658.28;5115853;28;20584;-78
2022/11/12 06:21:21;;;;;;;1.33;1.00;;;;;;;-145.69;100.00;52654.31;5115641;28;20659;-79
2022/11/12 06:23:50;;;;;;;2.13;1.43;;;;;;;-145.69;100.00;52634.50;5115693;28;20201;-79
2022/11/12 06:26:20;;;;;;;1.37;1.10;;;;;;;-145.69;100.00;52664.22;5113756;28;20228;-79
2022/11/12 06:28:48;;;;;;;2.60;1.40;;;;;;;-145.69;100.00;52670.16;5115406;28;20208;-79
2022/11/12 06:31:15;;;;;;;1.83;1.20;;;;;;;-145.69;100.00;52670.16;5115324;28;20747;-79
2022/11/12 06:33:45;;;;;;;6.60;1.47;;;;;;;-145.69;100.00;52684.03;5115279;28;20205;-79
2022/11/12 06:36:13;;;;;;;1.77;1.13;;;;;;;-145.69;100.00;52656.28;5115319;28;20282;-78
2022/11/12 06:38:41;;;;;;;3.30;1.50;;;;;;;-145.69;100.00;52666.19;5115716;28;20236;-78
2022/11/12 06:41:09;;;;;;;2.47;1.50;;;;;;;-145.69;100.00;52648.38;5115942;28;20207;-80
2022/11/12 06:43:36;;;;;;;1.73;1.30;;;;;;;-145.69;100.00;52654.31;5115231;28;20284;-79
2022/11/12 06:46:05;;;;;;;1.37;1.27;;;;;;;-145.69;100.00;52666.19;5115485;28;20292;-78
2022/11/12 06:48:32;;;;;;;4.17;2.30;;;;;;;-145.69;100.00;52632.53;5114955;28;20318;-79
2022/11/12 06:51:06;;;;;;;5.73;2.27;;;;;;;-145.69;100.00;52689.97;5115011;28;20751;-79
2022/11/12 06:53:33;;;;;;;7.23;2.53;;;;;;;-145.69;100.00;52644.41;5115256;28;20208;-78
2022/11/12 06:56:02;;;;;;;2.60;1.80;;;;;;;-145.69;100.00;52682.03;5115161;28;20292;-79
2022/11/12 06:58:29;;;;;;;3.50;1.90;;;;;;;-145.69;100.00;52662.22;5114800;28;20578;-78
2022/11/12 07:00:55;;;;;;;2.53;1.70;;;;;;;-145.69;100.00;52662.22;5115012;28;20292;-79
2022/11/12 07:03:22;;;;;;;3.33;1.80;;;;;;;-145.69;100.00;52656.28;5114807;28;20201;-78
2022/11/12 07:05:48;;;;;;;5.63;1.50;;;;;;;-145.69;100.00;52678.09;5114879;28;20197;-78
2022/11/12 07:08:16;;;;;;;4.50;1.60;;;;;;;-145.69;100.00;52652.34;5120303;28;20201;-79
2022/11/12 07:10:43;;;;;;;1.77;1.40;;;;;;;-145.69;100.00;52632.53;5114702;28;20845;-79
2022/11/12 07:13:15;;;;;;;3.20;1.30;;;;;;;-145.69;100.00;52668.19;5114216;28;20193;-79
2022/11/12 07:15:44;;;;;;;4.30;1.37;;;;;;;-145.69;100.00;52622.63;5114695;28;20735;-79
2022/11/12 07:18:10;;;;;;;2.63;1.33;;;;;;;-145.69;100.00;52642.44;5114312;28;20221;-79
2022/11/12 07:20:37;;;;;;;2.03;1.40;;;;;;;-145.69;100.00;52680.06;5114741;28;20246;-79
2022/11/12 07:23:03;;;;;;;1.30;1.10;;;;;;;-145.69;100.00;52652.34;5114558;28;20288;-79
2022/11/12 07:25:31;;;;;;;1.00;0.83;;;;;;;-145.69;100.00;52648.38;5114495;28;20201;-79
2022/11/12 07:27:58;;;;;;;1.17;1.07;;;;;;;-145.69;100.00;52656.28;5113240;28;20293;-79
2022/11/12 07:30:24;;;;;;;2.63;1.30;;;;;;;-145.69;100.00;52632.53;5114171;28;20193;-79
2022/11/12 07:32:51;;;;;;;3.47;1.30;;;;;;;-145.69;100.00;52646.41;5114127;28;20200;-79
2022/11/12 07:35:17;;;;;;;1.63;1.40;;;;;;;-145.69;100.00;52642.44;5114092;28;20241;-79
2022/11/12 07:37:44;;;;;;;1.77;1.10;;;;;;;-145.69;100.00;52666.19;5114163;28;20208;-78
2022/11/12 07:40:11;;;;;;;1.20;1.10;;;;;;;-145.69;100.00;52642.44;5114167;28;20564;-78
2022/11/12 07:42:39;;;;;;;1.00;0.90;;;;;;;-145.69;100.00;52658.28;5114032;28;20201;-78
2022/11/12 07:45:06;;;;;;;2.13;1.40;;;;;;;-145.69;100.00;52670.16;5112528;28;20197;-78
2022/11/12 07:47:33;;;;;;;1.83;1.30;;;;;;;-145.69;100.00;52606.78;5114086;28;20193;-78
2022/11/12 07:50:02;;;;;;;1.90;1.10;;;;;;;-145.69;100.00;52606.78;5112447;28;20197;-78
2022/11/12 07:52:30;;;;;;;2.60;0.97;;;;;;;-145.69;100.00;52634.50;5111641;28;20197;-78
2022/11/12 07:54:57;;;;;;;1.50;0.90;;;;;;;-145.69;100.00;52628.56;5104018;28;20289;-78
2022/11/12 07:57:23;;;;;;;11.20;6.47;;;;;;;-145.69;100.00;52640.44;5113776;28;20198;-78
2022/11/12 07:59:51;;;;;;;10.80;5.80;;;;;;;-145.69;100.00;52640.44;5113506;28;20583;-78
2022/11/12 08:02:18;;;;;;;9.47;4.57;;;;;;;-145.69;100.00;52678.09;5113743;28;20713;-79
2022/11/12 08:04:44;;;;;;;8.43;4.30;;;;;;;-145.69;100.00;52634.50;5113571;28;20653;-78
2022/11/12 08:07:11;;;;;;;7.23;3.83;;;;;;;-145.69;100.00;52622.63;5113662;28;20201;-78
2022/11/12 08:09:38;;;;;;;6.27;3.83;;;;;;;-145.69;100.00;52658.28;5112479;28;20576;-78
2022/11/12 08:12:04;;;;;;;5.47;3.37;;;;;;;-145.69;100.00;52616.69;5113431;28;20207;-78
2022/11/12 08:14:31;;;;;;;5.63;2.50;;;;;;;-145.69;100.00;52628.56;5113541;28;20202;-78
2022/11/12 08:16:59;;;;;;;4.57;2.70;;;;;;;-145.69;100.00;52650.34;5113432;28;20200;-79
2022/11/12 08:19:25;;;;;;;4.43;2.70;;;;;;;-145.69;100.00;52638.47;5113561;28;20233;-79
2022/11/12 08:21:52;;;;;;;5.65;2.97;;;;;;;-145.69;100.00;52604.81;5112599;28;20439;-78
2022/11/12 08:24:18;;;;;;;6.43;3.67;;;;;;;-145.69;100.00;52626.59;5113388;28;20200;-79
2022/11/12 08:26:44;;;;;;;3.70;2.73;;;;;;;-145.69;100.00;52652.34;5113107;28;20208;-78
2022/11/12 08:29:11;;;;;;;4.23;3.03;;;;;;;-145.69;100.00;52610.75;5113361;28;20563;-78
2022/11/12 08:31:37;;;;;;;5.00;3.10;;;;;;;-145.69;100.00;52642.44;5113310;28;20200;-79
2022/11/12 08:34:11;;;;;;;4.63;2.93;;;;;;;-145.69;100.00;52654.31;5112868;28;20711;-78
2022/11/12 08:36:39;;;;;;;3.37;2.30;;;;;;;-145.69;100.00;52626.59;5112713;28;20201;-79
2022/11/12 08:39:06;;;;;;;3.40;2.40;;;;;;;-145.69;100.00;52652.34;5112440;28;20225;-79
2022/11/12 08:41:33;;;;;;;5.50;2.37;;;;;;;-145.69;100.00;52648.38;5112904;28;20205;-80
2022/11/12 08:43:59;;;;;;;2.77;2.00;;;;;;;-145.69;100.00;52622.63;5112966;28;20215;-80
2022/11/12 08:46:26;;;;;;;2.37;1.70;;;;;;;-145.69;100.00;52662.22;5113465;28;20205;-81
2022/11/12 08:48:52;;;;;;;2.67;1.77;;;;;;;-145.69;100.00;52632.53;5112341;28;20201;-80
2022/11/12 08:51:20;;;;;;;3.77;2.03;;;;;;;-145.69;100.00;52644.41;5113199;28;20197;-80
2022/11/12 08:53:47;;;;;;;3.23;1.67;;;;;;;-145.69;100.00;52638.47;5113626;28;20201;-80
2022/11/12 08:56:13;;;;;;;3.80;2.27;;;;;;;-145.69;100.00;52618.66;5113578;28;20659;-79
2022/11/12 08:58:40;;;;;;;3.43;1.97;;;;;;;-145.69;100.00;52610.75;5113096;28;20252;-79
2022/11/12 09:01:09;;;;;;;4.13;2.20;;;;;;;-145.69;100.00;52604.81;5110702;28;20674;-79
2022/11/12 09:03:36;;;;;;;3.67;2.60;;;;;;;-145.69;100.00;52630.53;5112776;28;20206;-79
2022/11/12 09:06:03;;;;;;;5.60;2.67;;;;;;;-145.69;100.00;52612.72;5112546;28;20193;-79
2022/11/12 09:08:33;;;;;;;8.27;2.90;;;;;;;-145.69;100.00;52559.25;5112819;28;20208;-79
2022/11/12 09:11:00;;;;;;;3.03;2.00;;;;;;;-145.69;100.00;52616.69;5112639;28;20212;-79
2022/11/12 09:13:26;;;;;;;5.97;3.07;;;;;;;-145.69;100.00;52614.72;5113078;28;20204;-79
2022/11/12 09:15:53;;;;;;;4.60;2.33;;;;;;;-145.69;100.00;52632.53;5113014;28;20207;-79
2022/11/12 09:18:19;;;;;;;5.47;2.30;;;;;;;-145.69;100.00;52614.72;5112704;28;20205;-79
2022/11/12 09:20:46;;;;;;;4.57;2.40;;;;;;;-145.69;100.00;52600.84;5112912;28;20240;-81
2022/11/12 09:23:14;;;;;;;7.43;2.10;;;;;;;-145.69;100.00;52579.06;5112913;28;20206;-82
2022/11/12 09:25:43;;;;;;;2.70;2.00;;;;;;;-145.69;100.00;52583.00;5112778;28;20636;-82
2022/11/12 09:28:12;;;;;;;3.87;2.27;;;;;;;-145.69;100.00;52612.72;5092729;28;20210;-82
2022/11/12 09:30:44;;;;;;;4.53;2.07;;;;;;;-145.69;100.00;52590.94;5092777;28;20206;-82
2022/11/12 09:33:10;;;;;;;6.10;1.97;;;;;;;-145.69;100.00;52614.72;5107353;28;20201;-82
2022/11/12 09:35:38;;;;;;;2.10;1.70;;;;;;;-145.69;100.00;52579.06;5112690;28;20226;-82
2022/11/12 09:38:04;;;;;;;4.07;2.23;;;;;;;-145.69;100.00;52596.88;5112791;28;20202;-81
2022/11/12 09:40:41;;;;;;;4.07;2.17;;;;;;;-145.69;100.00;52594.91;5112736;28;20252;-82
2022/11/12 09:43:19;;;;;;;4.97;1.80;;;;;;;-145.69;100.00;52561.22;5112386;28;20197;-82
2022/11/12 09:45:47;;;;;;;6.60;2.33;;;;;;;-145.69;100.00;52579.06;5112415;28;20667;-82
2022/11/12 09:48:20;;;;;;;3.83;2.30;;;;;;;-145.69;100.00;52586.97;5095470;28;20552;-82
2022/11/12 09:50:56;;;;;;;2.57;1.87;;;;;;;-145.69;100.00;52543.41;5092527;28;20580;-81
2022/11/12 09:53:30;;;;;;;3.17;2.50;;;;;;;-145.69;100.00;52567.16;5096186;28;20214;-82
2022/11/12 09:55:57;;;;;;;6.43;2.30;;;;;;;-145.69;100.00;52569.16;5096133;28;20194;-81
2022/11/12 09:58:25;;;;;;;4.53;2.60;;;;;;;-145.69;100.00;52559.25;5095928;28;20209;-82
2022/11/12 10:00:55;;;;;;;4.60;2.43;;;;;;;-145.69;100.00;52586.97;5096018;28;20222;-82
2022/11/12 10:03:36;;;;;;;5.20;2.40;;;;;;;-145.69;100.00;52569.16;5095987;28;20221;-81
2022/11/12 10:06:10;;;;;;;5.07;2.50;;;;;;;-145.69;100.00;52575.09;5103084;28;20185;-82
2022/11/12 10:08:46;;;;;;;5.17;2.30;;;;;;;-145.69;100.00;52567.16;5116053;28;20197;-81
2022/11/12 10:11:30;;;;;;;6.00;2.60;;;;;;;-145.69;100.00;52575.09;5115824;28;20563;-82
2022/11/12 10:14:08;;;;;;;3.97;2.67;;;;;;;-145.69;100.00;52585.00;5115871;28;20221;-82
2022/11/12 10:16:49;;;;;;;7.00;2.23;;;;;;;-145.69;100.00;52561.22;5115684;28;20564;-82
2022/11/12 10:19:26;;;;;;;3.87;2.20;;;;;;;-145.69;100.00;52551.31;5115504;28;20224;-82
2022/11/12 10:22:03;;;;;;;5.53;2.37;;;;;;;-145.69;100.00;52537.47;5115775;28;20205;-82
2022/11/12 10:24:35;;;;;;;3.60;2.40;;;;;;;-145.69;100.00;52553.31;5115836;28;20202;-82
2022/11/12 10:27:03;;;;;;;4.03;2.70;;;;;;;-145.69;100.00;52573.13;5115470;28;20201;-82
2022/11/12 10:29:39;;;;;;;5.53;2.60;;;;;;;-145.69;100.00;52559.25;5115604;28;20292;-82
2022/11/12 10:32:13;;;;;;;3.70;2.30;;;;;;;-145.69;100.00;52571.13;5114777;28;20207;-81
2022/11/12 10:34:39;;;;;;;4.43;2.37;;;;;;;-145.69;100.00;52559.25;5114887;28;20236;-81
2022/11/12 10:37:11;;;;;;;4.67;2.50;;;;;;;-145.69;100.00;52577.06;5115933;28;20197;-81
2022/11/12 10:39:41;;;;;;;3.80;2.37;;;;;;;-145.69;100.00;52575.09;5115706;28;20224;-80
2022/11/12 10:42:09;;;;;;;4.63;2.00;;;;;;;-145.69;100.00;52575.09;5116032;28;20232;-81
2022/11/12 10:44:38;;;;;;;6.33;2.40;;;;;;;-145.69;100.00;52557.28;5115857;28;20249;-80
2022/11/12 10:47:22;;;;;;;7.07;2.33;;;;;;;-145.69;100.00;52543.41;5115080;28;20201;-79
2022/11/12 10:50:05;;;;;;;4.05;2.45;;;;;;;-145.69;100.00;52547.38;5114942;28;20251;-80
2022/11/12 10:52:32;;;;;;;5.30;2.20;;;;;;;-145.69;100.00;52555.28;5115534;28;20197;-81
2022/11/12 10:55:14;;;;;;;7.93;2.35;;;;;;;-145.69;100.00;52561.22;5115936;28;20206;-81
2022/11/12 10:57:41;;;;;;;5.03;2.03;;;;;;;-145.69;100.00;52539.44;5116122;28;20198;-80
2022/11/12 11:00:17;;;;;;;6.50;2.55;;;;;;;-145.69;100.00;52527.56;5115795;28;20239;-82
2022/11/12 11:02:49;;;;;;;4.10;2.28;;;;;;;-145.69;100.00;52525.59;5115212;27;20275;-82
2022/11/12 11:05:34;;;;;;;4.65;2.40;;;;;;;-145.69;100.00;52537.47;5115248;28;20651;-82
2022/11/12 11:08:01;;;;;;;5.57;2.25;;;;;;;-145.69;100.00;52519.63;5115340;28;20198;-82
2022/11/12 11:10:30;;;;;;;3.70;2.38;;;;;;;-145.69;100.00;52561.22;5115057;28;20201;-81
2022/11/12 11:13:10;;;;;;;4.18;2.20;;;;;;;-145.69;100.00;52511.72;5114543;28;20190;-82
2022/11/12 11:15:39;;;;;;;4.68;2.33;;;;;;;-145.69;100.00;52527.56;5114634;28;20201;-82
2022/11/12 11:18:10;;;;;;;6.97;2.50;;;;;;;-145.69;100.00;52499.84;5114821;28;20197;-82
2022/11/12 11:20:44;;;;;;;5.28;2.60;;;;;;;-145.69;100.00;52519.63;5115174;28;20225;-82
2022/11/12 11:23:18;;;;;;;5.03;2.70;;;;;;;-145.69;100.00;52489.94;5114895;28;20201;-80
2022/11/12 11:25:50;;;;;;;5.55;2.70;;;;;;;-145.69;100.00;52515.69;5114666;28;20197;-81
2022/11/12 11:28:23;;;;;;;4.03;2.70;;;;;;;-145.69;100.00;52491.91;5115339;28;20197;-81
2022/11/12 11:30:56;;;;;;;6.85;3.10;;;;;;;-145.69;100.00;52499.84;5115531;28;20207;-84
2022/11/12 11:33:41;;;;;;;7.40;2.42;;;;;;;-145.69;100.00;52515.69;5115065;28;20193;-82